sensor_id;sensor_type;location;lat;lon;timestamp;pressure;altitude;pressure_sealevel;temperature;humidity
73105;BME280;61296;50.526;30.792;2022-10-16T00:07:43;100647.47;;;4.07;75.35
73105;BME280;61296;50.526;30.792;2022-10-16T00:23:04;100732.34;;;4.23;76.93
73105;BME280;61296;50.526;30.792;2022-10-16T00:38:23;100604.06;;;3.01;80.86
73105;BME280;61296;50.526;30.792;2022-10-16T00:53:43;100605.00;;;3.10;79.76
73105;BME280;61296;50.526;30.792;2022-10-16T01:24:40;100627.72;;;3.60;76.04
73105;BME280;61296;50.526;30.792;2022-10-16T01:40:02;100668.03;;;3.99;75.03
73105;BME280;61296;50.526;30.792;2022-10-16T01:55:31;100686.47;;;3.89;75.50
73105;BME280;61296;50.526;30.792;2022-10-16T02:10:52;100763.59;;;3.98;76.30
73105;BME280;61296;50.526;30.792;2022-10-16T02:26:14;100671.97;;;2.68;79.23
73105;BME280;61296;50.526;30.792;2022-10-16T02:41:35;100633.69;;;2.13;79.69
73105;BME280;61296;50.526;30.792;2022-10-16T02:56:54;100712.97;;;2.29;80.25
73105;BME280;61296;50.526;30.792;2022-10-16T03:12:14;100678.16;;;1.69;80.68
73105;BME280;61296;50.526;30.792;2022-10-16T03:27:34;100746.47;;;2.43;80.13
73105;BME280;61296;50.526;30.792;2022-10-16T03:42:54;100778.38;;;2.75;78.22
73105;BME280;61296;50.526;30.792;2022-10-16T03:58:16;100698.59;;;1.86;79.72
73105;BME280;61296;50.526;30.792;2022-10-16T04:13:36;100776.28;;;2.24;79.60
73105;BME280;61296;50.526;30.792;2022-10-16T04:28:55;100728.91;;;1.93;79.60
73105;BME280;61296;50.526;30.792;2022-10-16T04:44:14;100753.47;;;1.49;81.73
73105;BME280;61296;50.526;30.792;2022-10-16T04:59:34;100808.84;;;2.72;80.27
73105;BME280;61296;50.526;30.792;2022-10-16T05:14:53;100872.84;;;3.91;75.78
73105;BME280;61296;50.526;30.792;2022-10-16T05:30:17;100771.56;;;3.62;73.93
73105;BME280;61296;50.526;30.792;2022-10-16T05:45:37;100892.81;;;4.33;73.39
73105;BME280;61296;50.526;30.792;2022-10-16T06:00:58;100906.03;;;5.08;70.71
73105;BME280;61296;50.526;30.792;2022-10-16T06:16:20;100869.22;;;5.33;68.29
73105;BME280;61296;50.526;30.792;2022-10-16T06:31:39;100901.16;;;5.91;67.05
73105;BME280;61296;50.526;30.792;2022-10-16T06:46:59;100889.53;;;6.30;65.68
73105;BME280;61296;50.526;30.792;2022-10-16T07:02:18;100896.19;;;6.78;64.73
73105;BME280;61296;50.526;30.792;2022-10-16T07:17:38;100890.00;;;7.12;63.33
73105;BME280;61296;50.526;30.792;2022-10-16T07:32:58;100972.69;;;7.83;63.49
73105;BME280;61296;50.526;30.792;2022-10-16T07:48:18;100961.84;;;8.21;62.37
73105;BME280;61296;50.526;30.792;2022-10-16T08:03:41;100958.78;;;8.31;62.61
73105;BME280;61296;50.526;30.792;2022-10-16T08:19:00;100895.75;;;8.23;61.37
73105;BME280;61296;50.526;30.792;2022-10-16T08:34:20;100902.41;;;8.68;58.29
73105;BME280;61296;50.526;30.792;2022-10-16T08:49:41;100890.97;;;8.96;56.58
73105;BME280;61296;50.526;30.792;2022-10-16T09:05:23;100899.88;;;9.22;56.05
73105;BME280;61296;50.526;30.792;2022-10-16T09:20:55;100881.81;;;9.42;51.48
73105;BME280;61296;50.526;30.792;2022-10-16T09:36:17;100865.78;;;9.44;51.72
73105;BME280;61296;50.526;30.792;2022-10-16T09:51:38;100919.06;;;10.06;51.08
73105;BME280;61296;50.526;30.792;2022-10-16T10:06:57;100875.91;;;10.06;49.86
73105;BME280;61296;50.526;30.792;2022-10-16T10:22:25;100960.06;;;10.53;50.66
73105;BME280;61296;50.526;30.792;2022-10-16T10:53:38;100928.31;;;10.92;46.23
73105;BME280;61296;50.526;30.792;2022-10-16T11:40:25;100953.69;;;11.10;45.00
73105;BME280;61296;50.526;30.792;2022-10-16T11:55:47;100899.09;;;10.99;44.67
73105;BME280;61296;50.526;30.792;2022-10-16T12:26:46;100911.94;;;11.08;43.88
73105;BME280;61296;50.526;30.792;2022-10-16T13:29:00;100937.03;;;11.43;41.89
73105;BME280;61296;50.526;30.792;2022-10-16T13:44:21;100892.34;;;10.97;42.18
73105;BME280;61296;50.526;30.792;2022-10-16T13:59:41;100821.81;;;10.56;43.68
73105;BME280;61296;50.526;30.792;2022-10-16T14:15:01;100817.44;;;10.30;43.61
73105;BME280;61296;50.526;30.792;2022-10-16T14:30:22;100872.47;;;10.55;44.75
73105;BME280;61296;50.526;30.792;2022-10-16T14:45:42;100871.41;;;10.23;46.11
73105;BME280;61296;50.526;30.792;2022-10-16T15:01:02;100936.81;;;10.29;47.33
73105;BME280;61296;50.526;30.792;2022-10-16T15:16:24;100907.78;;;9.66;49.28
73105;BME280;61296;50.526;30.792;2022-10-16T15:31:44;100915.16;;;9.32;50.85
73105;BME280;61296;50.526;30.792;2022-10-16T15:47:07;100968.75;;;9.38;52.48
73105;BME280;61296;50.526;30.792;2022-10-16T16:02:27;100872.13;;;8.65;53.73
73105;BME280;61296;50.526;30.792;2022-10-16T16:17:46;100868.16;;;8.45;55.00
73105;BME280;61296;50.526;30.792;2022-10-16T16:33:07;100893.59;;;8.54;56.55
73105;BME280;61296;50.526;30.792;2022-10-16T16:48:26;100883.38;;;8.17;57.83
73105;BME280;61296;50.526;30.792;2022-10-16T17:03:46;100907.09;;;8.04;58.48
73105;BME280;61296;50.526;30.792;2022-10-16T17:19:11;100885.69;;;7.71;59.11
73105;BME280;61296;50.526;30.792;2022-10-16T17:34:32;101031.66;;;8.15;59.94
73105;BME280;61296;50.526;30.792;2022-10-16T17:49:54;100928.47;;;7.24;61.04
73105;BME280;61296;50.526;30.792;2022-10-16T18:05:15;101009.34;;;7.47;62.07
73105;BME280;61296;50.526;30.792;2022-10-16T18:20:35;101035.78;;;7.52;62.41
73105;BME280;61296;50.526;30.792;2022-10-16T18:35:54;100999.66;;;6.93;63.07
73105;BME280;61296;50.526;30.792;2022-10-16T18:51:40;101036.03;;;6.93;63.71
73105;BME280;61296;50.526;30.792;2022-10-16T19:07:00;100981.16;;;6.14;64.90
73105;BME280;61296;50.526;30.792;2022-10-16T19:22:20;101122.00;;;6.79;65.53
73105;BME280;61296;50.526;30.792;2022-10-16T19:37:49;100977.31;;;5.43;67.37
73105;BME280;61296;50.526;30.792;2022-10-16T19:53:09;100956.22;;;5.07;67.11
73105;BME280;61296;50.526;30.792;2022-10-16T20:08:29;101120.91;;;6.07;67.31
73105;BME280;61296;50.526;30.792;2022-10-16T20:23:49;101088.47;;;5.78;67.92
73105;BME280;61296;50.526;30.792;2022-10-16T20:39:09;101019.16;;;5.25;68.42
73105;BME280;61296;50.526;30.792;2022-10-16T20:54:32;100993.69;;;4.88;68.95
73105;BME280;61296;50.526;30.792;2022-10-16T21:09:54;101015.81;;;5.00;68.84
73105;BME280;61296;50.526;30.792;2022-10-16T21:25:15;101044.00;;;5.09;69.07
73105;BME280;61296;50.526;30.792;2022-10-16T21:40:34;101102.84;;;5.43;68.76
73105;BME280;61296;50.526;30.792;2022-10-16T21:55:55;101002.38;;;4.44;69.14
73105;BME280;61296;50.526;30.792;2022-10-16T22:11:22;101031.88;;;4.55;69.19
73105;BME280;61296;50.526;30.792;2022-10-16T22:26:43;101051.25;;;4.54;69.25
73105;BME280;61296;50.526;30.792;2022-10-16T22:42:02;101076.75;;;4.77;69.83
73105;BME280;61296;50.526;30.792;2022-10-16T22:57:22;101047.88;;;4.43;70.40
73105;BME280;61296;50.526;30.792;2022-10-16T23:12:41;101098.72;;;4.67;70.53
73105;BME280;61296;50.526;30.792;2022-10-16T23:28:01;101024.75;;;4.08;70.95
73105;BME280;61296;50.526;30.792;2022-10-16T23:43:21;100982.91;;;3.66;71.63
73105;BME280;61296;50.526;30.792;2022-10-16T23:58:40;101140.81;;;4.42;72.65
